Time,TemperatureF,DewpointF,PressureIn,WindDirection,WindDirectionDegrees,WindSpeedMPH,WindSpeedGustMPH,Humidity,HourlyPrecipIn,Conditions,Clouds,dailyrainin,SoftwareType,DateUTC
2013-05-04 00:01:00,41.5,30.6,29.95,West,275,0.0,0.0,65,0.00,,,0.35,VWS V13.01,2013-05-04 05:01:00,
2013-05-04 00:05:00,41.5,30.3,29.95,WNW,286,4.9,5.4,64,0.00,,,0.00,VWS V13.01,2013-05-04 05:05:00,
2013-05-04 00:10:00,41.5,31.0,29.95,West,278,2.7,3.1,66,0.00,,,0.00,VWS V13.01,2013-05-04 05:10:00,
2013-05-04 00:15:00,41.5,30.3,29.92,WNW,289,4.0,4.0,64,0.00,,,0.00,VWS V13.01,2013-05-04 05:15:00,
2013-05-04 00:20:00,41.5,30.6,29.92,WNW,290,3.1,3.6,65,0.00,,,0.00,VWS V13.01,2013-05-04 05:20:00,
2013-05-04 00:25:00,41.5,30.6,29.92,West,272,3.6,3.6,65,0.00,,,0.00,VWS V13.01,2013-05-04 05:25:00,
2013-05-04 00:30:00,41.5,30.3,29.92,West,265,3.6,4.0,64,0.00,,,0.00,VWS V13.01,2013-05-04 05:30:00,
2013-05-04 00:35:00,41.5,30.3,29.92,SW,233,2.2,2.2,64,0.00,,,0.00,VWS V13.01,2013-05-04 05:35:00,
2013-05-04 00:40:00,41.3,30.5,29.92,WSW,250,0.0,2.2,65,0.00,,,0.00,VWS V13.01,2013-05-04 05:40:00,
2013-05-04 00:45:00,41.3,30.9,29.92,WSW,252,0.0,2.7,66,0.00,,,0.00,VWS V13.01,2013-05-04 05:45:00,
2013-05-04 00:50:00,41.2,30.3,29.92,WSW,240,3.1,3.6,65,0.00,,,0.00,VWS V13.01,2013-05-04 05:50:00,
2013-05-04 00:55:00,41.2,30.7,29.92,SW,236,0.0,0.0,66,0.00,,,0.00,VWS V13.01,2013-05-04 05:55:00,
2013-05-04 01:00:00,41.0,30.9,29.92,SW,233,2.7,2.7,67,0.00,,,0.00,VWS V13.01,2013-05-04 06:00:00,
2013-05-04 01:05:00,41.0,30.9,29.92,SW,227,3.6,3.6,67,0.00,,,0.00,VWS V13.01,2013-05-04 06:05:00,
2013-05-04 01:10:00,41.0,30.9,29.92,SSW,204,0.0,0.0,67,0.00,,,0.00,VWS V13.01,2013-05-04 06:10:00,
2013-05-04 01:15:00,41.0,30.9,29.92,SSW,204,0.0,0.0,67,0.00,,,0.00,VWS V13.01,2013-05-04 06:15:00,
2013-05-04 01:20:00,40.8,31.4,29.92,SSW,208,4.0,4.0,69,0.00,,,0.00,VWS V13.01,2013-05-04 06:20:00,
2013-05-04 01:25:00,40.8,31.8,29.92,WSW,247,2.2,2.2,70,0.00,,,0.00,VWS V13.01,2013-05-04 06:25:00,
2013-05-04 01:30:00,40.8,32.1,29.92,SW,215,2.7,4.9,71,0.00,,,0.00,VWS V13.01,2013-05-04 06:30:00,
2013-05-04 01:35:00,40.8,32.1,29.92,WSW,238,2.2,2.2,71,0.00,,,0.00,VWS V13.01,2013-05-04 06:35:00,
2013-05-04 01:40:00,40.8,31.8,29.92,WSW,252,0.0,0.0,70,0.00,,,0.00,VWS V13.01,2013-05-04 06:40:00,
2013-05-04 01:45:00,41.0,32.0,29.89,WSW,252,0.0,0.0,70,0.00,,,0.00,VWS V13.01,2013-05-04 06:45:00,
2013-05-04 01:50:00,41.0,32.0,29.89,WSW,256,0.0,0.0,70,0.00,,,0.00,VWS V13.01,2013-05-04 06:50:00,
2013-05-04 01:55:00,41.0,32.3,29.89,WSW,256,0.0,0.0,71,0.00,,,0.00,VWS V13.01,2013-05-04 06:55:00,
2013-05-04 02:00:00,41.0,32.7,29.89,WNW,297,0.0,0.0,72,0.00,,,0.00,VWS V13.01,2013-05-04 07:00:00,
2013-05-04 02:05:00,40.8,32.5,29.89,WNW,297,0.0,0.0,72,0.00,,,0.00,VWS V13.01,2013-05-04 07:05:00,
2013-05-04 02:10:00,40.8,32.5,29.89,WNW,297,0.0,0.0,72,0.00,,,0.00,VWS V13.01,2013-05-04 07:10:00,
2013-05-04 02:15:00,40.6,32.3,29.89,WNW,297,0.0,0.0,72,0.00,,,0.00,VWS V13.01,2013-05-04 07:15:00,
2013-05-04 02:20:00,40.4,32.1,29.89,WNW,297,0.0,0.0,72,0.00,,,0.00,VWS V13.01,2013-05-04 07:20:00,
2013-05-04 02:25:00,40.4,32.8,29.89,WNW,297,0.0,0.0,74,0.00,,,0.00,VWS V13.01,2013-05-04 07:25:00,
2013-05-04 02:30:00,40.4,32.8,29.89,WNW,290,0.0,3.6,74,0.00,,,0.00,VWS V13.01,2013-05-04 07:30:00,
2013-05-04 02:35:00,40.4,32.5,29.89,WNW,285,0.0,0.0,73,0.00,,,0.00,VWS V13.01,2013-05-04 07:35:00,
2013-05-04 02:40:00,40.4,32.5,29.89,WNW,285,0.0,0.0,73,0.00,,,0.00,VWS V13.01,2013-05-04 07:40:00,
2013-05-04 02:45:00,40.4,32.8,29.89,WNW,285,0.0,0.0,74,0.00,,,0.00,VWS V13.01,2013-05-04 07:45:00,
2013-05-04 02:50:00,40.3,32.7,29.89,WNW,285,0.0,0.0,74,0.00,,,0.00,VWS V13.01,2013-05-04 07:50:00,
2013-05-04 02:55:00,40.3,32.7,29.89,WNW,285,0.0,0.0,74,0.00,,,0.00,VWS V13.01,2013-05-04 07:55:00,
2013-05-04 03:00:00,40.3,32.7,29.89,WNW,285,0.0,0.0,74,0.00,,,0.00,VWS V13.01,2013-05-04 08:00:00,
2013-05-04 03:05:00,40.3,33.0,29.89,WSW,251,0.0,0.0,75,0.00,,,0.00,VWS V13.01,2013-05-04 08:05:00,
2013-05-04 03:10:00,40.4,33.8,29.89,WSW,237,3.6,3.6,77,0.00,,,0.00,VWS V13.01,2013-05-04 08:10:00,
2013-05-04 03:15:00,40.4,33.8,29.89,WSW,240,5.8,5.8,77,0.00,,,0.00,VWS V13.01,2013-05-04 08:15:00,
2013-05-04 03:20:00,40.8,33.5,29.89,WSW,237,4.0,4.0,75,0.00,,,0.00,VWS V13.01,2013-05-04 08:20:00,
2013-05-04 03:25:00,41.0,32.7,29.89,SW,228,4.9,6.3,72,0.00,,,0.00,VWS V13.01,2013-05-04 08:25:00,
2013-05-04 03:30:00,41.3,32.7,29.89,SW,233,6.3,7.6,71,0.00,,,0.00,VWS V13.01,2013-05-04 08:30:00,
2013-05-04 03:35:00,41.5,32.8,29.89,SW,235,7.6,7.6,71,0.00,,,0.00,VWS V13.01,2013-05-04 08:35:00,
2013-05-04 03:40:00,41.5,32.1,29.89,WNW,282,5.8,10.5,69,0.00,,,0.00,VWS V13.01,2013-05-04 08:40:00,
2013-05-04 03:45:00,41.7,31.9,29.89,WSW,242,7.6,8.7,68,0.00,,,0.00,VWS V13.01,2013-05-04 08:45:00,
2013-05-04 03:50:00,41.7,31.6,29.89,West,260,8.3,8.7,67,0.00,,,0.00,VWS V13.01,2013-05-04 08:50:00,
2013-05-04 03:55:00,41.7,31.9,29.89,SW,232,5.8,5.8,68,0.00,,,0.00,VWS V13.01,2013-05-04 08:55:00,
2013-05-04 04:00:00,41.7,31.9,29.89,West,274,7.6,7.6,68,0.00,,,0.00,VWS V13.01,2013-05-04 09:00:00,
2013-05-04 04:05:00,41.5,31.4,29.89,WSW,239,8.7,8.7,67,0.00,,,0.00,VWS V13.01,2013-05-04 09:05:00,
2013-05-04 04:10:00,41.5,31.0,29.89,West,269,6.3,8.7,66,0.00,,,0.00,VWS V13.01,2013-05-04 09:10:00,
2013-05-04 04:15:00,41.5,31.4,29.89,WSW,237,5.4,8.3,67,0.00,,,0.00,VWS V13.01,2013-05-04 09:15:00,
2013-05-04 04:20:00,41.3,31.2,29.89,WSW,254,5.8,7.6,67,0.00,,,0.00,VWS V13.01,2013-05-04 09:20:00,
2013-05-04 04:25:00,41.2,31.0,29.89,WSW,242,10.5,10.5,67,0.00,,,0.00,VWS V13.01,2013-05-04 09:25:00,
2013-05-04 04:30:00,41.2,31.4,29.89,West,260,8.3,10.5,68,0.00,,,0.00,VWS V13.01,2013-05-04 09:30:00,
2013-05-04 04:35:00,41.0,30.9,29.89,WSW,251,8.7,11.9,67,0.00,,,0.00,VWS V13.01,2013-05-04 09:35:00,
2013-05-04 04:40:00,41.0,30.9,29.89,West,261,6.3,10.1,67,0.00,,,0.00,VWS V13.01,2013-05-04 09:40:00,
2013-05-04 04:45:00,41.0,31.2,29.89,WSW,242,5.8,5.8,68,0.00,,,0.00,VWS V13.01,2013-05-04 09:45:00,
2013-05-04 04:50:00,40.8,31.4,29.89,WSW,243,5.4,6.3,69,0.00,,,0.00,VWS V13.01,2013-05-04 09:50:00,
2013-05-04 04:55:00,40.6,31.6,29.89,WSW,254,6.3,8.3,70,0.00,,,0.00,VWS V13.01,2013-05-04 09:55:00,
2013-05-04 05:00:00,40.6,31.6,29.86,SSW,211,5.4,8.1,70,0.00,,,0.00,VWS V13.01,2013-05-04 10:00:00,
2013-05-04 05:05:00,40.6,32.0,29.86,WSW,237,8.7,9.2,71,0.00,,,0.00,VWS V13.01,2013-05-04 10:05:00,
2013-05-04 05:10:00,40.4,32.5,29.86,SSW,201,3.6,6.3,73,0.00,,,0.00,VWS V13.01,2013-05-04 10:10:00,
2013-05-04 05:15:00,40.1,32.5,29.89,WSW,241,3.6,5.4,74,0.00,,,0.00,VWS V13.01,2013-05-04 10:15:00,
2013-05-04 05:20:00,39.9,33.0,29.89,SW,232,5.4,5.4,76,0.00,,,0.00,VWS V13.01,2013-05-04 10:20:00,
2013-05-04 05:25:00,39.7,33.8,29.89,SW,215,3.6,4.5,79,0.00,,,0.00,VWS V13.01,2013-05-04 10:25:00,
2013-05-04 05:30:00,39.5,34.2,29.89,SW,234,5.8,6.3,81,0.00,,,0.00,VWS V13.01,2013-05-04 10:30:00,
2013-05-04 05:35:00,39.4,34.9,29.89,WSW,239,5.8,5.8,84,0.00,,,0.00,VWS V13.01,2013-05-04 10:35:00,
2013-05-04 05:40:00,39.2,35.1,29.89,SW,216,5.4,10.5,85,0.00,,,0.00,VWS V13.01,2013-05-04 10:40:00,
2013-05-04 05:45:00,39.0,35.5,29.86,WSW,257,7.6,7.6,87,0.00,,,0.00,VWS V13.01,2013-05-04 10:45:00,
2013-05-04 05:50:00,38.8,35.0,29.86,WSW,245,5.8,8.1,86,0.00,,,0.00,VWS V13.01,2013-05-04 10:50:00,
2013-05-04 05:55:00,38.8,35.3,29.86,SW,222,7.6,8.3,87,0.00,,,0.00,VWS V13.01,2013-05-04 10:55:00,
2013-05-04 06:00:00,39.0,35.8,29.86,WSW,246,6.3,6.3,88,0.00,,,0.00,VWS V13.01,2013-05-04 11:00:00,
2013-05-04 06:05:00,39.0,35.8,29.86,WSW,249,5.8,5.8,88,0.00,,,0.00,VWS V13.01,2013-05-04 11:05:00,
2013-05-04 06:10:00,39.0,35.8,29.86,SW,228,5.4,5.8,88,0.00,,,0.00,VWS V13.01,2013-05-04 11:10:00,
2013-05-04 06:15:00,39.0,35.8,29.86,SSW,213,4.0,4.0,88,0.00,,,0.00,VWS V13.01,2013-05-04 11:15:00,
2013-05-04 06:20:00,39.0,35.8,29.86,SW,220,3.6,6.3,88,0.00,,,0.00,VWS V13.01,2013-05-04 11:20:00,
2013-05-04 06:25:00,39.0,36.0,29.86,SW,235,4.0,5.8,89,0.00,,,0.00,VWS V13.01,2013-05-04 11:25:00,
2013-05-04 06:30:00,39.0,36.0,29.86,WSW,243,4.9,4.9,89,0.00,,,0.00,VWS V13.01,2013-05-04 11:30:00,
2013-05-04 06:35:00,39.0,36.0,29.86,SW,232,5.4,5.4,89,0.00,,,0.00,VWS V13.01,2013-05-04 11:35:00,
2013-05-04 06:39:00,39.0,36.3,29.86,WSW,238,3.6,4.9,90,0.00,,,0.00,VWS V13.01,2013-05-04 11:39:00,
2013-05-04 06:45:00,39.0,36.6,29.89,SSW,193,3.1,3.6,91,0.00,,,0.00,VWS V13.01,2013-05-04 11:45:00,
2013-05-04 06:50:00,39.0,36.6,29.89,SW,220,2.7,4.9,91,0.00,,,0.00,VWS V13.01,2013-05-04 11:50:00,
2013-05-04 06:55:00,39.2,36.8,29.89,SW,229,2.7,4.0,91,0.00,,,0.00,VWS V13.01,2013-05-04 11:55:00,
2013-05-04 07:00:00,39.2,37.1,29.89,SW,231,2.7,3.6,92,0.00,,,0.00,VWS V13.01,2013-05-04 12:00:00,
2013-05-04 07:06:00,39.2,36.8,29.89,WSW,243,3.6,4.9,91,0.00,,,0.00,VWS V13.01,2013-05-04 12:06:00,
2013-05-04 07:11:00,39.4,37.0,29.89,WSW,255,5.4,5.4,91,0.00,,,0.00,VWS V13.01,2013-05-04 12:11:00,
2013-05-04 07:16:00,39.5,36.9,29.86,West,272,5.8,5.8,90,0.00,,,0.00,VWS V13.01,2013-05-04 12:16:00,
2013-05-04 07:21:00,39.7,37.0,29.86,WSW,243,4.9,5.4,90,0.00,,,0.00,VWS V13.01,2013-05-04 12:21:00,
2013-05-04 07:26:00,39.7,37.0,29.86,WSW,248,3.6,3.6,90,0.00,,,0.00,VWS V13.01,2013-05-04 12:26:00,
2013-05-04 07:32:00,39.9,36.9,29.86,WSW,249,3.1,4.0,89,0.00,,,0.00,VWS V13.01,2013-05-04 12:32:00,
2013-05-04 07:37:00,39.9,36.3,29.86,SW,231,5.8,5.8,87,0.00,,,0.00,VWS V13.01,2013-05-04 12:37:00,
2013-05-04 07:42:00,40.1,36.5,29.86,WSW,257,3.1,5.4,87,0.00,,,0.00,VWS V13.01,2013-05-04 12:42:00,
2013-05-04 07:47:00,40.3,35.8,29.86,WSW,241,8.1,8.7,84,0.00,,,0.00,VWS V13.01,2013-05-04 12:47:00,
2013-05-04 07:52:00,40.4,35.7,29.86,SW,225,6.3,6.3,83,0.00,,,0.00,VWS V13.01,2013-05-04 12:52:00,
2013-05-04 07:57:00,40.4,35.1,29.86,WSW,258,3.1,4.9,81,0.00,,,0.00,VWS V13.01,2013-05-04 12:57:00,
2013-05-04 08:02:00,40.4,35.1,29.86,SSW,210,8.1,10.1,81,0.00,,,0.00,VWS V13.01,2013-05-04 13:02:00,
2013-05-04 08:03:00,40.4,34.5,29.86,SW,236,5.4,5.4,79,0.00,,,0.00,VWS V13.01,2013-05-04 13:03:00,
2013-05-04 08:08:00,40.6,34.9,29.86,WSW,249,4.0,5.8,80,0.00,,,0.00,VWS V13.01,2013-05-04 13:08:00,
2013-05-04 08:13:00,40.8,34.8,29.86,WSW,237,5.8,6.3,79,0.00,,,0.00,VWS V13.01,2013-05-04 13:13:00,
2013-05-04 08:18:00,40.8,35.4,29.86,South,183,4.0,4.0,81,0.00,,,0.00,VWS V13.01,2013-05-04 13:18:00,
2013-05-04 08:23:00,40.8,35.7,29.86,WSW,241,7.2,9.6,82,0.00,,,0.00,VWS V13.01,2013-05-04 13:23:00,
2013-05-04 08:28:00,40.8,35.7,29.86,SW,221,4.5,5.8,82,0.00,,,0.00,VWS V13.01,2013-05-04 13:28:00,
2013-05-04 08:33:00,40.8,35.7,29.86,WSW,244,8.1,8.1,82,0.00,,,0.00,VWS V13.01,2013-05-04 13:33:00,
2013-05-04 08:38:00,41.0,36.5,29.86,WSW,239,8.7,8.7,84,0.00,,,0.00,VWS V13.01,2013-05-04 13:38:00,
2013-05-04 08:43:00,40.8,35.7,29.86,WSW,240,5.8,10.1,82,0.00,,,0.00,VWS V13.01,2013-05-04 13:43:00,
2013-05-04 08:48:00,40.8,36.3,29.86,WSW,237,6.3,7.2,84,0.00,,,0.00,VWS V13.01,2013-05-04 13:48:00,
2013-05-04 08:53:00,40.8,36.9,29.86,SW,223,5.8,7.6,86,0.00,,,0.00,VWS V13.01,2013-05-04 13:53:00,
2013-05-04 08:58:00,40.6,37.1,29.86,SW,231,6.3,8.1,87,0.00,,,0.00,VWS V13.01,2013-05-04 13:58:00,
2013-05-04 09:03:00,40.4,37.2,29.86,SSW,211,4.0,5.4,88,0.00,,,0.00,VWS V13.01,2013-05-04 14:03:00,
2013-05-04 09:08:00,40.6,37.9,29.86,South,181,6.3,7.2,90,0.00,,,0.00,VWS V13.01,2013-05-04 14:08:00,
2013-05-04 09:13:00,40.6,38.2,29.86,South,183,3.6,5.4,91,0.00,,,0.00,VWS V13.01,2013-05-04 14:13:00,
2013-05-04 09:18:00,40.8,38.7,29.86,WSW,246,5.8,6.3,92,0.00,,,0.00,VWS V13.01,2013-05-04 14:18:00,
2013-05-04 09:23:00,40.8,38.7,29.86,SW,216,7.6,7.6,92,0.00,,,0.00,VWS V13.01,2013-05-04 14:23:00,
2013-05-04 09:28:00,40.6,38.5,29.86,SW,223,3.1,4.0,92,0.00,,,0.00,VWS V13.01,2013-05-04 14:28:00,
2013-05-04 09:33:00,40.4,38.3,29.86,South,181,4.0,5.8,92,0.00,,,0.00,VWS V13.01,2013-05-04 14:33:00,
2013-05-04 09:38:00,40.6,38.8,29.86,SW,227,5.8,7.6,93,0.00,,,0.00,VWS V13.01,2013-05-04 14:38:00,
2013-05-04 09:43:00,40.8,38.7,29.86,SW,215,4.9,7.6,92,0.00,,,0.00,VWS V13.01,2013-05-04 14:43:00,
2013-05-04 09:48:00,40.8,38.4,29.86,SSW,211,3.1,6.3,91,0.00,,,0.00,VWS V13.01,2013-05-04 14:48:00,
2013-05-04 09:53:00,40.8,38.4,29.86,South,177,3.1,4.0,91,0.00,,,0.00,VWS V13.01,2013-05-04 14:53:00,
2013-05-04 09:58:00,40.8,38.7,29.86,SW,225,4.0,7.6,92,0.04,,,0.04,VWS V13.01,2013-05-04 14:58:00,
2013-05-04 10:03:00,41.0,38.8,29.86,SW,221,4.0,5.8,92,0.04,,,0.04,VWS V13.01,2013-05-04 15:03:00,
2013-05-04 10:08:00,41.0,38.8,29.86,WSW,240,4.9,4.9,92,0.04,,,0.04,VWS V13.01,2013-05-04 15:08:00,
2013-05-04 10:13:00,41.3,39.5,29.86,WSW,241,5.4,7.6,93,0.04,,,0.04,VWS V13.01,2013-05-04 15:13:00,
2013-05-04 10:18:00,41.2,38.5,29.86,SSW,211,3.6,5.8,90,0.04,,,0.04,VWS V13.01,2013-05-04 15:18:00,
2013-05-04 10:23:00,41.0,38.3,29.86,SW,234,4.9,5.8,90,0.04,,,0.04,VWS V13.01,2013-05-04 15:23:00,
2013-05-04 10:28:00,41.2,38.7,29.86,SSW,203,4.0,5.8,91,0.04,,,0.04,VWS V13.01,2013-05-04 15:28:00,
2013-05-04 10:33:00,41.3,39.2,29.86,SSW,198,3.1,5.4,92,0.04,,,0.04,VWS V13.01,2013-05-04 15:33:00,
2013-05-04 10:38:00,41.2,39.0,29.86,South,182,3.6,3.6,92,0.04,,,0.04,VWS V13.01,2013-05-04 15:38:00,
2013-05-04 10:43:00,41.0,38.6,29.86,SW,228,5.8,5.8,91,0.04,,,0.04,VWS V13.01,2013-05-04 15:43:00,
2013-05-04 10:48:00,41.0,37.4,29.86,West,261,5.8,5.8,87,0.04,,,0.04,VWS V13.01,2013-05-04 15:48:00,
2013-05-04 10:53:00,41.2,37.9,29.86,WSW,237,5.8,7.2,88,0.04,,,0.04,VWS V13.01,2013-05-04 15:53:00,
2013-05-04 10:58:00,41.3,38.3,29.86,SW,225,2.7,5.8,89,0.00,,,0.04,VWS V13.01,2013-05-04 15:58:00,
2013-05-04 11:03:00,41.7,39.3,29.86,SW,218,3.6,4.9,91,0.00,,,0.04,VWS V13.01,2013-05-04 16:03:00,
2013-05-04 11:08:00,41.7,39.0,29.86,SW,229,5.4,5.8,90,0.00,,,0.04,VWS V13.01,2013-05-04 16:08:00,
2013-05-04 11:13:00,41.5,38.0,29.86,SSW,207,4.0,6.3,87,0.00,,,0.04,VWS V13.01,2013-05-04 16:13:00,
2013-05-04 11:18:00,41.7,38.7,29.86,WSW,252,7.6,7.6,89,0.00,,,0.04,VWS V13.01,2013-05-04 16:18:00,
2013-05-04 11:23:00,41.5,38.2,29.86,South,186,2.7,3.6,88,0.00,,,0.04,VWS V13.01,2013-05-04 16:23:00,
2013-05-04 11:28:00,41.7,39.0,29.86,SSW,212,2.7,3.6,90,0.00,,,0.04,VWS V13.01,2013-05-04 16:28:00,
2013-05-04 11:33:00,42.1,39.9,29.86,South,184,3.6,4.0,92,0.00,,,0.04,VWS V13.01,2013-05-04 16:33:00,
2013-05-04 11:38:00,42.2,39.8,29.86,SW,229,4.9,6.3,91,0.00,,,0.04,VWS V13.01,2013-05-04 16:38:00,
2013-05-04 11:43:00,42.4,39.4,29.86,SW,229,4.9,8.3,89,0.00,,,0.04,VWS V13.01,2013-05-04 16:43:00,
2013-05-04 11:48:00,42.6,39.3,29.86,WSW,237,5.4,5.4,88,0.00,,,0.04,VWS V13.01,2013-05-04 16:48:00,
2013-05-04 11:53:00,42.8,38.6,29.86,SW,230,5.4,8.3,85,0.00,,,0.04,VWS V13.01,2013-05-04 16:53:00,
2013-05-04 11:58:00,43.5,39.6,29.86,South,187,4.0,4.0,86,0.00,,,0.04,VWS V13.01,2013-05-04 16:58:00,
2013-05-04 12:03:00,43.5,37.8,29.86,SW,235,7.6,7.6,80,0.00,,,0.04,VWS V13.01,2013-05-04 17:03:00,
2013-05-04 12:08:00,44.2,39.7,29.86,WSW,243,8.7,11.0,84,0.00,,,0.04,VWS V13.01,2013-05-04 17:08:00,
2013-05-04 12:13:00,44.6,37.8,29.86,SSW,210,3.6,5.8,77,0.00,,,0.04,VWS V13.01,2013-05-04 17:13:00,
2013-05-04 12:18:00,44.9,37.8,29.86,West,260,3.1,7.6,76,0.00,,,0.04,VWS V13.01,2013-05-04 17:18:00,
2013-05-04 12:23:00,44.8,37.3,29.86,SW,220,7.2,11.4,75,0.00,,,0.04,VWS V13.01,2013-05-04 17:23:00,
2013-05-04 12:28:00,44.4,37.7,29.86,WSW,238,6.3,6.3,77,0.00,,,0.04,VWS V13.01,2013-05-04 17:28:00,
2013-05-04 12:33:00,43.9,37.1,29.86,SW,226,3.6,8.1,77,0.00,,,0.04,VWS V13.01,2013-05-04 17:33:00,
2013-05-04 12:38:00,44.0,37.3,29.86,WSW,243,5.4,5.4,77,0.00,,,0.04,VWS V13.01,2013-05-04 17:38:00,
2013-05-04 12:43:00,44.0,35.6,29.86,WSW,239,7.6,7.6,72,0.00,,,0.04,VWS V13.01,2013-05-04 17:43:00,
2013-05-04 12:48:00,43.7,35.6,29.86,WNW,290,6.3,6.3,73,0.00,,,0.04,VWS V13.01,2013-05-04 17:48:00,
2013-05-04 12:53:00,42.6,36.2,29.86,NNW,340,6.3,6.3,78,0.00,,,0.04,VWS V13.01,2013-05-04 17:53:00,
2013-05-04 12:58:00,41.9,37.7,29.86,West,276,4.0,4.9,85,0.00,,,0.04,VWS V13.01,2013-05-04 17:58:00,
2013-05-04 13:03:00,42.2,37.8,29.86,WNW,286,3.1,4.0,84,0.00,,,0.04,VWS V13.01,2013-05-04 18:03:00,
2013-05-04 13:08:00,42.8,39.2,29.86,NW,305,5.8,5.8,87,0.00,,,0.04,VWS V13.01,2013-05-04 18:08:00,
2013-05-04 13:13:00,43.3,39.7,29.86,NNW,329,0.0,0.0,87,0.00,,,0.04,VWS V13.01,2013-05-04 18:13:00,
2013-05-04 13:18:00,43.7,38.2,29.86,WSW,254,0.0,5.8,81,0.00,,,0.04,VWS V13.01,2013-05-04 18:18:00,
2013-05-04 13:22:00,44.4,38.0,29.86,WNW,290,4.0,4.0,78,0.00,,,0.04,VWS V13.01,2013-05-04 18:22:00,
2013-05-04 13:27:00,45.3,36.1,29.86,WSW,237,5.8,5.8,70,0.00,,,0.04,VWS V13.01,2013-05-04 18:27:00,
2013-05-04 13:32:00,45.7,36.5,29.86,SW,236,10.5,10.5,70,0.00,,,0.04,VWS V13.01,2013-05-04 18:32:00,
2013-05-04 13:37:00,46.0,36.1,29.86,SW,236,5.4,5.4,68,0.00,,,0.04,VWS V13.01,2013-05-04 18:37:00,
2013-05-04 13:42:00,46.4,36.4,29.86,West,269,3.6,4.9,68,0.00,,,0.04,VWS V13.01,2013-05-04 18:42:00,
2013-05-04 13:47:00,46.6,35.8,29.86,WSW,242,4.9,5.8,66,0.00,,,0.04,VWS V13.01,2013-05-04 18:47:00,
2013-05-04 13:52:00,46.0,34.9,29.86,SSW,207,4.9,7.6,65,0.00,,,0.04,VWS V13.01,2013-05-04 18:52:00,
2013-05-04 13:57:00,45.3,35.0,29.86,SW,233,5.8,6.3,67,0.00,,,0.04,VWS V13.01,2013-05-04 18:57:00,
2013-05-04 14:02:00,45.1,34.8,29.86,SW,236,5.8,5.8,67,0.00,,,0.04,VWS V13.01,2013-05-04 19:02:00,
2013-05-04 14:07:00,44.9,33.5,29.86,SW,234,8.3,10.1,64,0.00,,,0.04,VWS V13.01,2013-05-04 19:07:00,
2013-05-04 14:12:00,45.1,35.2,29.86,SW,227,6.3,7.6,68,0.00,,,0.04,VWS V13.01,2013-05-04 19:12:00,
2013-05-04 14:17:00,45.3,33.9,29.86,West,267,10.1,10.1,64,0.00,,,0.04,VWS V13.01,2013-05-04 19:17:00,
2013-05-04 14:22:00,45.5,35.5,29.86,West,268,6.3,6.3,68,0.00,,,0.04,VWS V13.01,2013-05-04 19:22:00,
2013-05-04 14:27:00,44.8,34.1,29.86,West,274,5.4,6.3,66,0.00,,,0.04,VWS V13.01,2013-05-04 19:27:00,
2013-05-04 14:32:00,44.8,34.9,29.86,SW,232,7.6,9.2,68,0.00,,,0.04,VWS V13.01,2013-05-04 19:32:00,
2013-05-04 14:37:00,43.9,34.7,29.86,West,265,6.3,6.3,70,0.00,,,0.04,VWS V13.01,2013-05-04 19:37:00,
2013-05-04 14:42:00,43.3,34.9,29.86,West,266,5.8,6.3,72,0.00,,,0.04,VWS V13.01,2013-05-04 19:42:00,
2013-05-04 14:47:00,43.3,34.9,29.86,West,266,4.9,4.9,72,0.00,,,0.04,VWS V13.01,2013-05-04 19:47:00,
2013-05-04 14:52:00,43.7,36.0,29.86,West,266,4.0,4.0,74,0.00,,,0.04,VWS V13.01,2013-05-04 19:52:00,
2013-05-04 14:57:00,43.7,34.5,29.86,West,266,5.4,5.4,70,0.00,,,0.04,VWS V13.01,2013-05-04 19:57:00,
2013-05-04 15:02:00,43.7,35.6,29.86,West,267,3.6,5.8,73,0.00,,,0.04,VWS V13.01,2013-05-04 20:02:00,
2013-05-04 15:07:00,43.9,36.5,29.86,West,264,4.5,4.5,75,0.00,,,0.04,VWS V13.01,2013-05-04 20:07:00,
2013-05-04 15:12:00,44.0,35.6,29.86,WNW,300,4.0,6.3,72,0.00,,,0.04,VWS V13.01,2013-05-04 20:12:00,
2013-05-04 15:17:00,44.4,36.0,29.86,WSW,240,5.4,5.4,72,0.00,,,0.04,VWS V13.01,2013-05-04 20:17:00,
2013-05-04 15:22:00,44.6,37.2,29.86,NW,325,5.4,5.4,75,0.00,,,0.04,VWS V13.01,2013-05-04 20:22:00,
2013-05-04 15:27:00,43.7,34.2,29.86,West,265,5.4,5.4,69,0.00,,,0.04,VWS V13.01,2013-05-04 20:27:00,
2013-05-04 15:32:00,43.3,34.9,29.89,West,272,4.9,4.9,72,0.00,,,0.04,VWS V13.01,2013-05-04 20:32:00,
2013-05-04 15:37:00,43.5,36.5,29.89,NW,310,4.0,4.0,76,0.00,,,0.04,VWS V13.01,2013-05-04 20:37:00,
2013-05-04 15:42:00,44.0,38.0,29.89,WNW,282,5.4,5.4,79,0.00,,,0.04,VWS V13.01,2013-05-04 20:42:00,
2013-05-04 15:47:00,44.0,36.6,29.89,WNW,293,4.0,4.0,75,0.00,,,0.04,VWS V13.01,2013-05-04 20:47:00,
2013-05-04 15:52:00,44.4,36.7,29.89,West,264,4.0,4.0,74,0.00,,,0.04,VWS V13.01,2013-05-04 20:52:00,
2013-05-04 15:57:00,44.8,37.0,29.89,WSW,250,4.9,7.6,74,0.00,,,0.04,VWS V13.01,2013-05-04 20:57:00,
2013-05-04 16:02:00,44.9,36.8,29.86,NW,324,3.1,5.8,73,0.00,,,0.04,VWS V13.01,2013-05-04 21:02:00,
2013-05-04 16:07:00,45.1,36.7,29.86,WNW,292,6.7,6.7,72,0.00,,,0.04,VWS V13.01,2013-05-04 21:07:00,
2013-05-04 16:12:00,45.1,34.8,29.86,WNW,294,4.0,5.4,67,0.00,,,0.04,VWS V13.01,2013-05-04 21:12:00,
2013-05-04 16:17:00,44.9,34.7,29.89,WNW,293,5.4,6.3,67,0.00,,,0.04,VWS V13.01,2013-05-04 21:17:00,
2013-05-04 16:22:00,44.9,34.7,29.89,NW,318,6.3,6.3,67,0.00,,,0.04,VWS V13.01,2013-05-04 21:22:00,
2013-05-04 16:27:00,44.8,35.2,29.89,SW,236,5.8,5.8,69,0.00,,,0.04,VWS V13.01,2013-05-04 21:27:00,
2013-05-04 16:32:00,44.2,34.7,29.89,West,275,8.1,8.7,69,0.00,,,0.04,VWS V13.01,2013-05-04 21:32:00,
2013-05-04 16:37:00,43.9,35.4,29.89,SW,229,4.9,5.4,72,0.00,,,0.04,VWS V13.01,2013-05-04 21:37:00,
2013-05-04 16:42:00,43.5,35.8,29.89,WSW,240,3.1,6.3,74,0.00,,,0.04,VWS V13.01,2013-05-04 21:42:00,
2013-05-04 16:47:00,43.5,36.1,29.89,West,259,5.4,5.4,75,0.00,,,0.04,VWS V13.01,2013-05-04 21:47:00,
2013-05-04 16:52:00,43.7,36.3,29.89,West,260,4.9,6.3,75,0.00,,,0.04,VWS V13.01,2013-05-04 21:52:00,
2013-05-04 16:57:00,43.7,36.6,29.89,WSW,251,6.3,6.3,76,0.00,,,0.04,VWS V13.01,2013-05-04 21:57:00,
2013-05-04 17:02:00,43.9,36.8,29.89,WSW,238,6.3,8.1,76,0.00,,,0.04,VWS V13.01,2013-05-04 22:02:00,
2013-05-04 17:07:00,43.9,37.1,29.89,SW,225,4.9,4.9,77,0.00,,,0.04,VWS V13.01,2013-05-04 22:07:00,
2013-05-04 17:12:00,44.2,39.1,29.89,NW,304,6.3,6.3,82,0.00,,,0.04,VWS V13.01,2013-05-04 22:12:00,
2013-05-04 17:17:00,44.8,37.3,29.89,NW,307,5.4,5.4,75,0.00,,,0.04,VWS V13.01,2013-05-04 22:17:00,
2013-05-04 17:22:00,44.8,36.3,29.89,NW,308,4.0,5.8,72,0.00,,,0.04,VWS V13.01,2013-05-04 22:22:00,
2013-05-04 17:27:00,44.6,35.0,29.89,WNW,290,6.3,6.3,69,0.00,,,0.04,VWS V13.01,2013-05-04 22:27:00,
2013-05-04 17:32:00,44.6,35.0,29.89,SW,230,5.4,5.4,69,0.00,,,0.04,VWS V13.01,2013-05-04 22:32:00,
2013-05-04 17:37:00,44.8,36.0,29.89,WSW,242,6.3,7.2,71,0.00,,,0.04,VWS V13.01,2013-05-04 22:37:00,
2013-05-04 17:42:00,44.9,36.1,29.89,West,266,3.1,4.5,71,0.00,,,0.04,VWS V13.01,2013-05-04 22:42:00,
2013-05-04 17:47:00,44.9,35.4,29.89,West,260,5.4,5.4,69,0.00,,,0.04,VWS V13.01,2013-05-04 22:47:00,
2013-05-04 17:52:00,44.9,35.4,29.89,West,279,4.9,4.9,69,0.00,,,0.04,VWS V13.01,2013-05-04 22:52:00,
2013-05-04 17:57:00,44.9,35.4,29.89,WSW,248,5.4,5.4,69,0.00,,,0.04,VWS V13.01,2013-05-04 22:57:00,
2013-05-04 18:02:00,44.9,35.4,29.89,WSW,239,6.3,6.3,69,0.00,,,0.04,VWS V13.01,2013-05-04 23:02:00,
2013-05-04 18:07:00,45.1,36.3,29.89,NW,319,5.4,5.4,71,0.00,,,0.04,VWS V13.01,2013-05-04 23:07:00,
2013-05-04 18:12:00,45.1,34.8,29.89,West,266,6.3,6.3,67,0.00,,,0.04,VWS V13.01,2013-05-04 23:12:00,
2013-05-04 18:17:00,45.1,35.2,29.89,WNW,302,3.6,3.6,68,0.00,,,0.04,VWS V13.01,2013-05-04 23:17:00,
2013-05-04 18:22:00,45.1,35.2,29.89,West,277,3.6,5.8,68,0.00,,,0.04,VWS V13.01,2013-05-04 23:22:00,
2013-05-04 18:27:00,45.1,34.8,29.89,SW,219,3.1,6.3,67,0.00,,,0.04,VWS V13.01,2013-05-04 23:27:00,
2013-05-04 18:32:00,45.1,35.2,29.89,West,259,4.0,4.0,68,0.00,,,0.04,VWS V13.01,2013-05-04 23:32:00,
2013-05-04 18:37:00,45.1,34.8,29.89,WSW,250,5.4,7.6,67,0.00,,,0.04,VWS V13.01,2013-05-04 23:37:00,
2013-05-04 18:42:00,45.1,34.8,29.89,West,276,3.1,3.6,67,0.00,,,0.04,VWS V13.01,2013-05-04 23:42:00,
2013-05-04 18:47:00,45.1,35.2,29.89,WNW,300,3.1,3.6,68,0.00,,,0.04,VWS V13.01,2013-05-04 23:47:00,
2013-05-04 18:52:00,44.9,34.7,29.89,West,259,4.0,4.0,67,0.00,,,0.04,VWS V13.01,2013-05-04 23:52:00,
2013-05-04 18:57:00,44.8,34.9,29.89,West,260,4.0,4.0,68,0.00,,,0.04,VWS V13.01,2013-05-04 23:57:00,
2013-05-04 19:02:00,44.6,34.7,29.89,NW,305,3.1,3.1,68,0.00,,,0.04,VWS V13.01,2013-05-05 00:02:00,
2013-05-04 19:07:00,44.4,34.9,29.89,WNW,293,3.1,4.0,69,0.00,,,0.04,VWS V13.01,2013-05-05 00:07:00,
2013-05-04 19:12:00,44.2,35.1,29.89,WSW,242,2.7,3.1,70,0.00,,,0.04,VWS V13.01,2013-05-05 00:12:00,
2013-05-04 19:17:00,44.0,34.9,29.89,West,266,4.9,4.9,70,0.00,,,0.04,VWS V13.01,2013-05-05 00:17:00,
2013-05-04 19:22:00,44.0,35.2,29.89,WNW,283,4.0,4.0,71,0.00,,,0.04,VWS V13.01,2013-05-05 00:22:00,
2013-05-04 19:27:00,43.9,35.1,29.89,WSW,246,3.6,3.6,71,0.00,,,0.04,VWS V13.01,2013-05-05 00:27:00,
2013-05-04 19:32:00,43.9,35.4,29.92,WSW,254,2.7,2.7,72,0.00,,,0.04,VWS V13.01,2013-05-05 00:32:00,
2013-05-04 19:37:00,44.2,35.1,29.92,West,260,2.7,3.1,70,0.00,,,0.04,VWS V13.01,2013-05-05 00:37:00,
2013-05-04 19:42:00,44.4,34.9,29.92,WSW,245,0.0,0.0,69,0.00,,,0.04,VWS V13.01,2013-05-05 00:42:00,
2013-05-04 19:47:00,44.4,34.5,29.92,WNW,292,2.2,3.6,68,0.00,,,0.04,VWS V13.01,2013-05-05 00:47:00,
2013-05-04 19:52:00,44.4,34.5,29.92,WNW,284,0.0,2.2,68,0.00,,,0.04,VWS V13.01,2013-05-05 00:52:00,
2013-05-04 19:57:00,43.9,34.4,29.92,WNW,297,0.0,2.2,69,0.00,,,0.04,VWS V13.01,2013-05-05 00:57:00,
2013-05-04 20:02:00,43.5,34.4,29.92,WSW,241,3.1,3.1,70,0.00,,,0.04,VWS V13.01,2013-05-05 01:02:00,
2013-05-04 20:07:00,43.1,33.7,29.92,WNW,296,3.6,4.0,69,0.00,,,0.04,VWS V13.01,2013-05-05 01:07:00,
2013-05-04 20:12:00,43.1,34.0,29.92,WNW,294,4.0,4.0,70,0.00,,,0.04,VWS V13.01,2013-05-05 01:12:00,
2013-05-04 20:17:00,42.8,34.0,29.92,West,280,0.0,0.0,71,0.00,,,0.04,VWS V13.01,2013-05-05 01:17:00,
2013-05-04 20:21:00,42.8,34.0,29.92,West,263,2.7,2.7,71,0.00,,,0.04,VWS V13.01,2013-05-05 01:21:00,
2013-05-04 20:26:00,42.4,34.0,29.92,West,271,2.7,2.7,72,0.00,,,0.04,VWS V13.01,2013-05-05 01:26:00,
2013-05-04 20:31:00,42.2,33.9,29.92,West,259,2.2,2.7,72,0.00,,,0.04,VWS V13.01,2013-05-05 01:31:00,
2013-05-04 20:36:00,42.1,34.0,29.92,WSW,250,3.1,3.1,73,0.00,,,0.04,VWS V13.01,2013-05-05 01:36:00,
2013-05-04 20:41:00,41.9,34.5,29.92,WSW,253,2.2,2.7,75,0.00,,,0.04,VWS V13.01,2013-05-05 01:41:00,
2013-05-04 20:46:00,41.7,34.4,29.92,WSW,253,0.0,0.0,75,0.00,,,0.04,VWS V13.01,2013-05-05 01:46:00,
2013-05-04 20:51:00,41.5,34.2,29.92,WSW,253,0.0,0.0,75,0.00,,,0.04,VWS V13.01,2013-05-05 01:51:00,
2013-05-04 20:56:00,41.3,35.0,29.92,West,269,0.0,0.0,78,0.00,,,0.04,VWS V13.01,2013-05-05 01:56:00,
2013-05-04 21:01:00,41.0,34.7,29.95,West,259,2.2,2.2,78,0.00,,,0.04,VWS V13.01,2013-05-05 02:01:00,
2013-05-04 21:06:00,40.8,34.8,29.95,West,263,2.7,2.7,79,0.00,,,0.04,VWS V13.01,2013-05-05 02:06:00,
2013-05-04 21:11:00,40.6,35.3,29.95,WSW,254,3.1,3.6,81,0.00,,,0.04,VWS V13.01,2013-05-05 02:11:00,
2013-05-04 21:16:00,40.4,35.4,29.95,SW,236,3.6,3.6,82,0.00,,,0.04,VWS V13.01,2013-05-05 02:16:00,
2013-05-04 21:21:00,40.4,35.7,29.95,WSW,250,3.1,3.1,83,0.00,,,0.04,VWS V13.01,2013-05-05 02:21:00,
2013-05-04 21:26:00,40.3,35.5,29.95,West,267,3.1,3.1,83,0.00,,,0.04,VWS V13.01,2013-05-05 02:26:00,
2013-05-04 21:31:00,40.1,35.3,29.95,West,261,2.7,3.1,83,0.00,,,0.04,VWS V13.01,2013-05-05 02:31:00,
2013-05-04 21:36:00,39.9,35.2,29.95,WSW,243,0.0,0.0,83,0.00,,,0.04,VWS V13.01,2013-05-05 02:36:00,
2013-05-04 21:41:00,39.7,35.0,29.95,WSW,243,0.0,0.0,83,0.00,,,0.04,VWS V13.01,2013-05-05 02:41:00,
2013-05-04 21:46:00,39.5,34.8,29.95,WSW,246,0.0,0.0,83,0.00,,,0.04,VWS V13.01,2013-05-05 02:46:00,
2013-05-04 21:51:00,39.4,34.9,29.95,West,267,0.0,0.0,84,0.00,,,0.04,VWS V13.01,2013-05-05 02:51:00,
2013-05-04 21:56:00,39.2,35.1,29.95,West,267,0.0,0.0,85,0.00,,,0.04,VWS V13.01,2013-05-05 02:56:00,
2013-05-04 22:01:00,39.0,34.9,29.95,West,267,0.0,0.0,85,0.00,,,0.04,VWS V13.01,2013-05-05 03:01:00,
2013-05-04 22:06:00,38.6,34.5,29.95,SSW,207,0.0,0.0,85,0.00,,,0.04,VWS V13.01,2013-05-05 03:06:00,
2013-05-04 22:11:00,38.5,34.3,29.95,SSW,207,0.0,0.0,85,0.00,,,0.04,VWS V13.01,2013-05-05 03:11:00,
2013-05-04 22:16:00,38.3,34.8,29.95,SSW,207,0.0,0.0,87,0.00,,,0.04,VWS V13.01,2013-05-05 03:16:00,
2013-05-04 22:21:00,38.1,34.6,29.95,SSW,207,0.0,0.0,87,0.00,,,0.04,VWS V13.01,2013-05-05 03:21:00,
2013-05-04 22:26:00,37.9,34.4,29.95,SSW,207,0.0,0.0,87,0.00,,,0.04,VWS V13.01,2013-05-05 03:26:00,
2013-05-04 22:31:00,37.7,34.2,29.98,SSW,207,0.0,0.0,87,0.00,,,0.04,VWS V13.01,2013-05-05 03:31:00,
2013-05-04 22:36:00,37.7,34.5,29.98,SSW,207,0.0,0.0,88,0.00,,,0.04,VWS V13.01,2013-05-05 03:36:00,
2013-05-04 22:41:00,37.7,34.8,29.98,SSW,207,0.0,0.0,89,0.00,,,0.04,VWS V13.01,2013-05-05 03:41:00,
2013-05-04 22:46:00,37.7,34.8,29.98,SSW,207,0.0,0.0,89,0.00,,,0.04,VWS V13.01,2013-05-05 03:46:00,
2013-05-04 22:51:00,37.7,35.1,29.98,SSW,207,0.0,0.0,90,0.00,,,0.04,VWS V13.01,2013-05-05 03:51:00,
2013-05-04 22:56:00,37.7,35.3,29.98,SSW,207,0.0,0.0,91,0.00,,,0.04,VWS V13.01,2013-05-05 03:56:00,
2013-05-04 23:01:00,37.7,35.3,29.95,SSW,207,0.0,0.0,91,0.00,,,0.04,VWS V13.01,2013-05-05 04:01:00,
2013-05-04 23:06:00,37.6,35.2,29.95,SSW,207,0.0,0.0,91,0.00,,,0.04,VWS V13.01,2013-05-05 04:06:00,
2013-05-04 23:11:00,37.4,35.0,29.95,SSW,207,0.0,0.0,91,0.00,,,0.04,VWS V13.01,2013-05-05 04:11:00,
2013-05-04 23:16:00,37.4,35.0,29.98,SSW,207,0.0,0.0,91,0.00,,,0.04,VWS V13.01,2013-05-05 04:16:00,
2013-05-04 23:21:00,37.2,35.1,29.98,SSW,207,0.0,0.0,92,0.00,,,0.04,VWS V13.01,2013-05-05 04:21:00,
2013-05-04 23:26:00,37.0,35.2,29.98,SSW,207,0.0,0.0,93,0.00,,,0.04,VWS V13.01,2013-05-05 04:26:00,
2013-05-04 23:31:00,36.8,35.0,29.95,SSW,207,0.0,0.0,93,0.00,,,0.04,VWS V13.01,2013-05-05 04:31:00,
2013-05-04 23:36:00,36.7,34.8,29.95,SSW,207,0.0,0.0,93,0.00,,,0.04,VWS V13.01,2013-05-05 04:36:00,
2013-05-04 23:41:00,36.5,34.7,29.95,SSW,207,0.0,0.0,93,0.00,,,0.04,VWS V13.01,2013-05-05 04:41:00,
2013-05-04 23:46:00,36.3,34.5,29.98,SSW,207,0.0,0.0,93,0.00,,,0.04,VWS V13.01,2013-05-05 04:46:00,
2013-05-04 23:51:00,36.3,34.5,29.98,SSW,207,0.0,0.0,93,0.00,,,0.04,VWS V13.01,2013-05-05 04:51:00,
2013-05-04 23:56:00,36.1,34.3,29.98,SSW,207,0.0,0.0,93,0.00,,,0.04,VWS V13.01,2013-05-05 04:56:00,